North Easton, Massachusetts
Current Conditions -  °F | °C
As of 11:27 AM on Wednesday 22 Oct 2014 (Local Time) from KOWD Reporting Station
Light Rain Light Rain  
Wind Chill: 53°   Ceiling: 1000
Heat Index: 53°   Visibility: 2.5mi
Dew Point: 50°   Wind: 14mph
Humidity: 89%   Direction: 10°N
Pressure: 29.99"   Gusts: 28mph
Location:  42.07°N, 71.1°W
Report Text: KOWD 221527Z 01012G24KT 2 1/2SM -RA BR OVC010 12/10 A2999 RMK AO2 CIG 008V014 P0000 T01170100
Loading
Personal Weather Stations






























Interactive Weather Map
Tropical Storm Tracking
New forecast layout! Learn more

10-Day Weather Forecast

Advertisements
Track Severe Weather on mobile